createdAt,value
2022-08-09T00:00:23.147Z,16.79
2022-08-09T00:02:52.519Z,16.78
2022-08-09T00:06:16.495Z,16.55
2022-08-09T00:08:31.281Z,16.59
2022-08-09T00:10:59.684Z,16.55
2022-08-09T00:13:31.719Z,16.64
2022-08-09T00:16:02.340Z,16.62
2022-08-09T00:18:34.809Z,16.66
2022-08-09T00:21:07.735Z,16.73
2022-08-09T00:23:57.490Z,16.65
2022-08-09T00:26:30.158Z,17.08
2022-08-09T00:29:02.071Z,17.72
2022-08-09T00:31:57.637Z,17.04
2022-08-09T00:34:19.293Z,16.43
2022-08-09T00:36:52.076Z,16.29
2022-08-09T00:40:08.882Z,16.33
2022-08-09T00:44:11.855Z,16.60
2022-08-09T00:44:55.913Z,16.92
2022-08-09T00:47:25.306Z,16.89
2022-08-09T00:49:56.677Z,16.37
2022-08-09T00:52:30.370Z,16.50
2022-08-09T00:55:00.426Z,16.36
2022-08-09T00:57:34.240Z,16.11
2022-08-09T01:00:20.574Z,15.99
2022-08-09T01:03:14.546Z,15.92
2022-08-09T01:05:54.236Z,16.12
2022-08-09T01:08:49.682Z,16.06
2022-08-09T01:11:34.479Z,16.15
2022-08-09T01:14:08.003Z,15.92
2022-08-09T01:16:47.420Z,16.13
2022-08-09T01:19:42.944Z,16.58
2022-08-09T01:22:31.905Z,16.24
2022-08-09T01:25:05.884Z,16.07
2022-08-09T01:27:36.455Z,17.03
2022-08-09T01:30:05.839Z,16.67
2022-08-09T01:32:45.375Z,16.78
2022-08-09T01:35:37.213Z,16.12
2022-08-09T01:38:14.761Z,15.99
2022-08-09T01:41:09.808Z,15.82
2022-08-09T01:43:51.187Z,15.80
2022-08-09T01:46:24.977Z,15.78
2022-08-09T01:48:56.739Z,16.08
2022-08-09T01:51:26.206Z,16.33
2022-08-09T01:53:58.042Z,16.26
2022-08-09T01:56:27.553Z,16.05
2022-08-09T01:58:56.785Z,16.07
2022-08-09T02:01:57.658Z,16.25
2022-08-09T02:04:15.460Z,16.25
2022-08-09T02:07:02.689Z,16.32
2022-08-09T02:09:41.818Z,16.30
2022-08-09T02:12:13.403Z,15.99
2022-08-09T02:14:47.287Z,15.89
2022-08-09T02:17:59.476Z,15.68
2022-08-09T02:20:10.156Z,15.56
2022-08-09T02:22:46.390Z,15.80
2022-08-09T02:25:20.958Z,15.71
2022-08-09T02:28:00.496Z,15.98
2022-08-09T02:30:52.408Z,15.94
2022-08-09T02:33:23.111Z,15.63
2022-08-09T02:36:08.668Z,15.63
2022-08-09T02:38:47.858Z,15.43
2022-08-09T02:41:28.714Z,15.71
2022-08-09T02:44:01.420Z,15.64
2022-08-09T02:46:39.278Z,15.56
2022-08-09T02:49:09.961Z,15.83
2022-08-09T02:51:40.585Z,15.82
2022-08-09T02:54:10.256Z,15.65
2022-08-09T02:56:41.739Z,15.61
2022-08-09T02:59:17.679Z,15.63
2022-08-09T03:02:06.369Z,15.36
2022-08-09T03:04:35.985Z,15.39
2022-08-09T03:07:12.509Z,15.46
2022-08-09T03:09:43.621Z,15.82
2022-08-09T03:12:23.825Z,15.90
2022-08-09T03:14:51.951Z,15.83
2022-08-09T03:17:26.586Z,15.64
2022-08-09T03:20:05.015Z,15.53
2022-08-09T03:22:41.397Z,15.50
2022-08-09T03:25:26.731Z,15.64
2022-08-09T03:28:02.824Z,15.67
2022-08-09T03:30:33.363Z,15.48
2022-08-09T03:33:17.443Z,15.70
2022-08-09T03:36:13.619Z,15.54
2022-08-09T03:38:42.893Z,15.69
2022-08-09T03:41:15.297Z,15.65
2022-08-09T03:44:03.098Z,15.69
2022-08-09T03:46:33.140Z,15.92
2022-08-09T03:49:03.794Z,16.11
2022-08-09T03:51:56.536Z,15.90
2022-08-09T03:54:29.285Z,16.07
2022-08-09T03:56:59.825Z,16.24
2022-08-09T03:59:52.983Z,16.30
2022-08-09T04:02:26.197Z,16.41
2022-08-09T04:05:00.729Z,16.51
2022-08-09T04:07:47.183Z,16.55
2022-08-09T04:10:28.402Z,16.57
2022-08-09T04:13:01.378Z,16.62
2022-08-09T04:16:18.234Z,16.74
2022-08-09T04:18:21.574Z,16.50
2022-08-09T04:20:51.319Z,16.33
2022-08-09T04:23:24.544Z,15.85
2022-08-09T04:25:54.257Z,15.80
2022-08-09T04:28:34.146Z,16.11
2022-08-09T04:31:08.324Z,15.94
2022-08-09T04:33:47.635Z,15.86
2022-08-09T04:36:23.444Z,15.89
2022-08-09T04:38:52.432Z,15.90
2022-08-09T04:41:23.616Z,15.77
2022-08-09T04:44:05.266Z,16.07
2022-08-09T04:46:58.561Z,16.25
2022-08-09T04:49:52.906Z,16.38
2022-08-09T04:55:12.013Z,16.33
2022-08-09T04:57:58.988Z,16.29
2022-08-09T05:00:31.719Z,15.83
2022-08-09T05:03:13.418Z,15.82
2022-08-09T05:06:06.650Z,15.97
2022-08-09T05:08:35.657Z,16.25
2022-08-09T05:11:07.753Z,16.38
2022-08-09T05:13:38.943Z,16.59
2022-08-09T05:16:08.183Z,16.96
2022-08-09T05:18:57.501Z,16.86
2022-08-09T05:21:30.249Z,16.69
2022-08-09T05:24:11.905Z,16.80
2022-08-09T05:26:47.688Z,16.67
2022-08-09T05:29:21.635Z,17.21
2022-08-09T05:31:56.704Z,16.96
2022-08-09T05:34:31.068Z,17.22
2022-08-09T05:37:06.731Z,17.31
2022-08-09T05:39:42.884Z,17.52
2022-08-09T05:42:17.965Z,17.27
2022-08-09T05:44:51.304Z,17.22
2022-08-09T05:47:21.765Z,17.07
2022-08-09T05:50:25.967Z,17.27
2022-08-09T05:52:43.649Z,17.75
2022-08-09T05:55:20.607Z,17.22
2022-08-09T05:57:56.099Z,17.09
2022-08-09T06:00:26.453Z,17.52
2022-08-09T06:02:57.872Z,18.12
2022-08-09T06:05:50.549Z,18.48
2022-08-09T06:08:19.394Z,18.67
2022-08-09T06:10:52.382Z,19.71
2022-08-09T06:13:20.969Z,18.64
2022-08-09T06:15:51.125Z,19.24
2022-08-09T06:18:24.816Z,20.28
2022-08-09T06:20:58.371Z,20.15
2022-08-09T06:23:57.460Z,19.65
2022-08-09T06:26:43.646Z,19.34
2022-08-09T06:29:15.003Z,18.73
2022-08-09T06:32:08.826Z,19.01
2022-08-09T06:34:33.913Z,19.14
2022-08-09T06:37:01.634Z,18.47
2022-08-09T06:39:48.374Z,18.74
2022-08-09T06:42:24.833Z,19.01
2022-08-09T06:44:57.442Z,19.22
2022-08-09T06:47:30.251Z,18.71
2022-08-09T06:50:14.849Z,18.91
2022-08-09T06:52:48.677Z,18.57
2022-08-09T06:55:22.973Z,18.56
2022-08-09T06:58:03.117Z,18.59
2022-08-09T07:00:55.745Z,18.43
2022-08-09T07:03:28.113Z,18.12
2022-08-09T07:06:03.978Z,18.08
2022-08-09T07:08:37.175Z,18.09
2022-08-09T07:11:07.282Z,18.32
2022-08-09T07:13:44.927Z,18.39
2022-08-09T07:16:41.446Z,18.87
2022-08-09T07:19:15.561Z,18.07
2022-08-09T07:21:55.307Z,17.97
2022-08-09T07:24:31.977Z,18.44
2022-08-09T07:27:23.894Z,18.59
2022-08-09T07:29:57.174Z,18.20
2022-08-09T07:32:33.122Z,18.81
2022-08-09T07:35:07.909Z,18.85
2022-08-09T07:37:43.444Z,18.97
2022-08-09T07:40:18.530Z,18.79
2022-08-09T07:45:52.061Z,17.99
2022-08-09T07:48:28.651Z,17.71
2022-08-09T07:51:10.033Z,17.59
2022-08-09T07:54:05.779Z,17.68
2022-08-09T07:56:49.230Z,17.85
2022-08-09T07:59:34.885Z,18.50
2022-08-09T08:02:07.252Z,18.19
2022-08-09T08:08:45.158Z,17.84
2022-08-09T08:10:14.219Z,18.31
2022-08-09T08:12:46.387Z,18.37
2022-08-09T08:15:35.569Z,19.14
2022-08-09T08:18:05.341Z,18.61
2022-08-09T08:20:33.595Z,18.58
2022-08-09T08:23:06.995Z,18.58
2022-08-09T08:25:49.976Z,18.23
2022-08-09T08:28:32.258Z,18.06
2022-08-09T08:31:10.521Z,19.44
2022-08-09T08:33:53.187Z,19.01
2022-08-09T08:36:42.808Z,18.47
2022-08-09T08:39:39.276Z,18.60
2022-08-09T08:42:12.935Z,18.33
2022-08-09T08:44:41.840Z,19.10
2022-08-09T08:47:12.521Z,19.45
2022-08-09T08:49:47.756Z,19.39
2022-08-09T08:52:57.414Z,19.17
2022-08-09T08:55:07.297Z,19.34
2022-08-09T08:57:38.176Z,19.78
2022-08-09T09:00:21.011Z,20.36
2022-08-09T09:03:02.812Z,21.62
2022-08-09T09:05:59.906Z,21.84
2022-08-09T09:08:43.585Z,24.19
2022-08-09T09:11:21.003Z,23.41
2022-08-09T09:13:56.371Z,22.77
2022-08-09T09:16:31.013Z,21.52
2022-08-09T09:22:04.201Z,21.92
2022-08-09T09:24:34.819Z,22.27
2022-08-09T09:27:03.629Z,22.99
2022-08-09T09:29:58.125Z,23.67
2022-08-09T09:35:13.009Z,22.74
2022-08-09T09:37:46.122Z,21.63
2022-08-09T09:40:13.872Z,22.97
2022-08-09T09:42:56.021Z,24.24
2022-08-09T09:45:25.753Z,24.25
2022-08-09T09:47:58.516Z,24.49
2022-08-09T09:50:50.658Z,24.00
2022-08-09T09:53:21.401Z,22.50
2022-08-09T09:56:04.472Z,22.63
2022-08-09T09:58:47.152Z,22.45
2022-08-09T10:01:31.460Z,21.42
2022-08-09T10:04:13.128Z,21.20
2022-08-09T10:06:47.109Z,21.03
2022-08-09T10:09:23.097Z,22.21
2022-08-09T10:12:12.144Z,21.71
2022-08-09T10:14:47.690Z,22.79
2022-08-09T10:17:39.546Z,22.81
2022-08-09T10:20:27.569Z,23.24
2022-08-09T10:23:13.605Z,22.37
2022-08-09T10:26:06.184Z,22.29
2022-08-09T10:28:34.270Z,24.64
2022-08-09T10:34:10.791Z,22.55
2022-08-09T10:37:01.732Z,21.22
2022-08-09T10:39:30.186Z,21.25
2022-08-09T10:42:09.966Z,20.76
2022-08-09T10:44:39.793Z,21.12
2022-08-09T10:48:14.446Z,21.84
2022-08-09T10:50:54.953Z,22.26
2022-08-09T10:53:37.842Z,22.20
2022-08-09T10:56:22.948Z,21.99
2022-08-09T10:58:54.056Z,21.75
2022-08-09T11:03:13.337Z,22.15
2022-08-09T11:04:30.581Z,21.70
2022-08-09T11:07:00.975Z,22.79
2022-08-09T11:09:41.216Z,22.62
2022-08-09T11:12:17.749Z,22.19
2022-08-09T11:14:51.634Z,21.33
2022-08-09T11:17:22.967Z,21.44
2022-08-09T11:20:10.262Z,21.64
2022-08-09T11:22:44.697Z,22.11
2022-08-09T11:25:44.889Z,20.88
2022-08-09T11:28:34.298Z,20.96
2022-08-09T11:31:03.741Z,20.96
2022-08-09T11:33:46.270Z,21.05
2022-08-09T11:36:35.665Z,21.07
2022-08-09T11:39:05.043Z,20.58
2022-08-09T11:41:37.607Z,20.81
2022-08-09T11:44:06.859Z,21.69
2022-08-09T11:46:53.221Z,21.29
2022-08-09T11:49:42.602Z,20.75
2022-08-09T11:52:59.235Z,20.32
2022-08-09T11:55:51.624Z,20.11
2022-08-09T11:58:50.063Z,19.95
2022-08-09T12:01:37.622Z,19.33
2022-08-09T12:04:09.777Z,19.32
2022-08-09T12:06:55.686Z,19.42
2022-08-09T12:09:27.885Z,19.81
2022-08-09T12:12:13.124Z,20.38
2022-08-09T12:15:07.255Z,20.14
2022-08-09T12:17:43.567Z,20.79
2022-08-09T12:20:21.618Z,21.23
2022-08-09T12:22:55.693Z,22.21
2022-08-09T12:25:37.098Z,21.92
2022-08-09T12:29:11.407Z,21.23
2022-08-09T12:31:10.708Z,20.63
2022-08-09T12:33:58.517Z,20.21
2022-08-09T12:36:33.722Z,20.28
2022-08-09T12:39:02.406Z,20.63
2022-08-09T12:41:38.067Z,20.73
2022-08-09T12:44:09.689Z,20.62
2022-08-09T12:46:39.945Z,20.94
2022-08-09T12:49:08.986Z,21.22
2022-08-09T12:54:22.260Z,21.13
2022-08-09T12:56:54.419Z,20.82
2022-08-09T12:59:23.964Z,20.46
2022-08-09T13:02:11.787Z,19.77
2022-08-09T13:04:59.592Z,19.84
2022-08-09T13:07:50.925Z,20.10
2022-08-09T13:10:19.483Z,19.91
2022-08-09T13:13:09.411Z,19.41
2022-08-09T13:15:50.816Z,19.60
2022-08-09T13:18:18.861Z,19.78
2022-08-09T13:21:20.585Z,19.66
2022-08-09T13:24:15.846Z,19.94
2022-08-09T13:26:43.199Z,19.79
2022-08-09T13:29:19.007Z,19.37
2022-08-09T13:32:17.315Z,18.93
2022-08-09T13:34:47.002Z,18.81
2022-08-09T13:37:24.650Z,18.72
2022-08-09T13:41:52.043Z,18.66
2022-08-09T13:42:55.600Z,18.81
2022-08-09T13:45:31.806Z,18.63
2022-08-09T13:48:14.605Z,18.71
2022-08-09T13:50:43.452Z,19.07
2022-08-09T13:53:11.716Z,19.12
2022-08-09T13:55:41.416Z,19.02
2022-08-09T13:58:12.909Z,18.73
2022-08-09T14:00:50.484Z,18.76
2022-08-09T14:04:02.968Z,18.79
2022-08-09T14:06:14.616Z,18.88
2022-08-09T14:08:47.777Z,19.18
2022-08-09T14:11:16.225Z,18.88
2022-08-09T14:14:23.155Z,19.14
2022-08-09T14:16:32.601Z,19.02
2022-08-09T14:19:02.251Z,18.72
2022-08-09T14:21:31.924Z,18.63
2022-08-09T14:24:01.256Z,18.59
2022-08-09T14:26:40.927Z,18.50
2022-08-09T14:30:15.240Z,18.57
2022-08-09T14:31:57.674Z,18.82
2022-08-09T14:34:32.323Z,19.01
2022-08-09T14:37:06.587Z,19.11
2022-08-09T14:39:40.032Z,19.30
2022-08-09T14:42:38.954Z,19.21
2022-08-09T14:46:57.563Z,18.84
2022-08-09T14:47:58.609Z,18.70
2022-08-09T14:50:28.568Z,19.18
2022-08-09T14:52:56.458Z,18.50
2022-08-09T14:55:25.320Z,18.42
2022-08-09T14:57:57.324Z,18.61
2022-08-09T15:00:25.280Z,18.39
2022-08-09T15:02:54.747Z,18.30
2022-08-09T15:05:26.398Z,18.43
2022-08-09T15:07:56.857Z,18.46
2022-08-09T15:10:27.906Z,18.24
2022-08-09T15:12:56.540Z,18.18
2022-08-09T15:15:24.842Z,18.13
2022-08-09T15:17:58.555Z,18.31
2022-08-09T15:21:54.683Z,18.12
2022-08-09T15:24:03.599Z,18.37
2022-08-09T15:26:02.689Z,18.59
2022-08-09T15:28:33.564Z,18.75
2022-08-09T15:31:10.027Z,18.40
2022-08-09T15:34:17.574Z,18.09
2022-08-09T15:39:12.733Z,17.98
2022-08-09T15:41:44.950Z,18.06
2022-08-09T15:44:16.549Z,18.23
2022-08-09T15:46:48.166Z,18.17
2022-08-09T15:49:21.986Z,18.15
2022-08-09T15:52:03.309Z,18.05
2022-08-09T15:54:52.636Z,17.93
2022-08-09T15:57:34.351Z,18.31
2022-08-09T16:00:10.997Z,18.80
2022-08-09T16:02:48.019Z,18.60
2022-08-09T16:05:22.861Z,19.18
2022-08-09T16:07:51.278Z,19.63
2022-08-09T16:10:56.006Z,19.66
2022-08-09T16:13:20.921Z,18.80
2022-08-09T16:16:10.585Z,18.65
2022-08-09T16:18:44.817Z,19.21
2022-08-09T16:21:17.682Z,18.74
2022-08-09T16:23:58.305Z,19.72
2022-08-09T16:26:34.117Z,18.57
2022-08-09T16:29:11.852Z,19.22
2022-08-09T16:32:18.317Z,19.24
2022-08-09T16:34:54.530Z,18.57
2022-08-09T16:37:54.604Z,18.22
2022-08-09T16:40:12.982Z,18.01
2022-08-09T16:42:45.276Z,17.84
2022-08-09T16:45:19.005Z,18.42
2022-08-09T16:48:41.087Z,18.72
2022-08-09T16:50:38.695Z,18.00
2022-08-09T16:53:06.879Z,17.67
2022-08-09T16:55:57.768Z,18.06
2022-08-09T16:58:25.448Z,17.37
2022-08-09T17:00:54.966Z,17.28
2022-08-09T17:03:23.072Z,17.80
2022-08-09T17:06:07.857Z,17.87
2022-08-09T17:09:00.234Z,17.40
2022-08-09T17:11:40.703Z,17.15
2022-08-09T17:14:26.080Z,18.07
2022-08-09T17:17:23.254Z,17.38
2022-08-09T17:20:32.473Z,17.01
2022-08-09T17:22:49.725Z,17.59
2022-08-09T17:25:20.917Z,17.38
2022-08-09T17:27:54.603Z,17.38
2022-08-09T17:30:28.447Z,17.24
2022-08-09T17:33:01.373Z,18.20
2022-08-09T17:35:41.022Z,18.39
2022-08-09T17:38:24.293Z,18.09
2022-08-09T17:41:00.027Z,18.14
2022-08-09T17:43:34.160Z,17.31
2022-08-09T17:46:09.642Z,17.48
2022-08-09T17:48:39.727Z,17.24
2022-08-09T17:51:17.836Z,16.88
2022-08-09T17:53:52.115Z,17.03
2022-08-09T17:56:27.483Z,16.81
2022-08-09T17:59:09.168Z,17.03
2022-08-09T18:02:03.500Z,17.05
2022-08-09T18:04:25.792Z,16.90
2022-08-09T18:06:55.225Z,16.77
2022-08-09T18:09:40.282Z,16.64
2022-08-09T18:12:17.061Z,16.64
2022-08-09T18:18:02.187Z,16.70
2022-08-09T18:20:55.890Z,16.64
2022-08-09T18:24:08.866Z,16.57
2022-08-09T18:25:59.901Z,16.45
2022-08-09T18:30:38.744Z,16.55
2022-08-09T18:34:20.590Z,17.02
2022-08-09T18:36:53.437Z,17.25
2022-08-09T18:39:32.828Z,17.49
2022-08-09T18:42:08.029Z,17.07
2022-08-09T18:44:36.600Z,16.85
2022-08-09T18:47:09.651Z,16.78
2022-08-09T18:49:46.439Z,16.64
2022-08-09T18:52:16.147Z,16.26
2022-08-09T18:54:53.629Z,16.31
2022-08-09T18:57:22.930Z,16.36
2022-08-09T18:59:55.578Z,16.23
2022-08-09T19:02:30.567Z,16.28
2022-08-09T19:05:14.281Z,16.31
2022-08-09T19:10:55.658Z,16.33
2022-08-09T19:13:49.671Z,16.31
2022-08-09T19:16:12.904Z,16.35
2022-08-09T19:18:45.275Z,16.40
2022-08-09T19:21:13.368Z,16.41
2022-08-09T19:24:39.447Z,16.40
2022-08-09T19:26:51.493Z,16.35
2022-08-09T19:29:20.801Z,16.28
2022-08-09T19:31:51.298Z,16.27
2022-08-09T19:34:22.597Z,16.27
2022-08-09T19:36:53.576Z,16.30
2022-08-09T19:42:07.335Z,16.11
2022-08-09T19:47:23.332Z,16.01
2022-08-09T19:50:07.253Z,15.97
2022-08-09T19:55:52.728Z,16.11
2022-08-09T19:58:17.086Z,15.85
2022-08-09T20:00:56.903Z,15.83
2022-08-09T20:04:13.912Z,15.80
2022-08-09T20:06:22.400Z,15.82
2022-08-09T20:08:52.072Z,15.71
2022-08-09T20:11:48.878Z,15.81
2022-08-09T20:14:21.073Z,15.75
2022-08-09T20:16:50.312Z,15.64
2022-08-09T20:19:48.599Z,15.54
2022-08-09T20:22:14.091Z,15.50
2022-08-09T20:24:51.337Z,15.51
2022-08-09T20:27:21.752Z,15.58
2022-08-09T20:29:50.932Z,15.57
2022-08-09T20:35:04.106Z,15.61
2022-08-09T20:38:18.539Z,15.69
2022-08-09T20:40:27.120Z,15.72
2022-08-09T20:43:00.329Z,15.58
2022-08-09T20:46:00.996Z,15.59
2022-08-09T20:48:36.418Z,15.52
2022-08-09T20:51:05.514Z,15.52
2022-08-09T20:53:36.940Z,15.62
2022-08-09T20:56:17.407Z,15.61
2022-08-09T20:58:48.601Z,15.60
2022-08-09T21:01:34.516Z,15.75
2022-08-09T21:04:08.205Z,15.70
2022-08-09T21:06:53.056Z,15.62
2022-08-09T21:09:25.079Z,15.46
2022-08-09T21:14:42.257Z,15.37
2022-08-09T21:18:22.311Z,15.44
2022-08-09T21:20:22.624Z,15.42
2022-08-09T21:22:54.243Z,15.30
2022-08-09T21:25:55.356Z,15.21
2022-08-09T21:28:55.489Z,15.11
2022-08-09T21:31:48.506Z,15.07
2022-08-09T21:34:21.033Z,15.09
2022-08-09T21:36:56.808Z,14.94
2022-08-09T21:39:27.900Z,15.08
2022-08-09T21:42:10.412Z,14.83
2022-08-09T21:44:39.418Z,14.85
2022-08-09T21:47:11.142Z,14.70
2022-08-09T21:49:46.686Z,14.64
2022-08-09T21:52:18.512Z,14.65
2022-08-09T21:55:03.512Z,14.72
2022-08-09T21:57:39.532Z,14.73
2022-08-09T22:00:33.167Z,14.74
2022-08-09T22:03:06.474Z,14.67
2022-08-09T22:05:36.931Z,14.66
2022-08-09T22:08:13.103Z,14.62
2022-08-09T22:11:49.910Z,14.62
2022-08-09T22:13:34.741Z,14.57
2022-08-09T22:16:04.440Z,14.67
2022-08-09T22:18:35.998Z,14.63
2022-08-09T22:21:09.471Z,14.62
2022-08-09T22:23:58.870Z,14.62
2022-08-09T22:26:35.480Z,14.85
2022-08-09T22:29:09.247Z,15.19
2022-08-09T22:31:50.302Z,14.89
2022-08-09T22:34:28.638Z,14.76
2022-08-09T22:36:57.079Z,14.87
2022-08-09T22:39:57.936Z,14.92
2022-08-09T22:42:21.213Z,15.40
2022-08-09T22:45:00.151Z,15.48
2022-08-09T22:48:13.139Z,15.14
2022-08-09T22:50:28.439Z,15.17
2022-08-09T22:52:57.837Z,15.08
2022-08-09T22:55:33.715Z,15.25
2022-08-09T22:58:31.028Z,15.21
2022-08-09T23:01:02.375Z,15.17
2022-08-09T23:06:32.513Z,15.13
2022-08-09T23:09:07.787Z,15.25
2022-08-09T23:11:35.441Z,15.14
2022-08-09T23:14:04.231Z,15.32
2022-08-09T23:16:45.285Z,15.56
2022-08-09T23:19:13.160Z,15.50
2022-08-09T23:21:40.893Z,15.44
2022-08-09T23:24:09.207Z,15.46
2022-08-09T23:26:37.600Z,15.57
2022-08-09T23:29:06.408Z,15.59
2022-08-09T23:31:34.525Z,15.43
2022-08-09T23:34:02.734Z,15.62
2022-08-09T23:36:34.794Z,15.57
2022-08-09T23:39:04.689Z,15.66
2022-08-09T23:41:32.562Z,15.61
2022-08-09T23:44:01.249Z,15.53
2022-08-09T23:46:30.002Z,15.78
2022-08-09T23:48:58.138Z,15.51
2022-08-09T23:51:26.443Z,15.50
2022-08-09T23:53:55.192Z,15.54
2022-08-09T23:56:53.646Z,15.56
2022-08-09T23:59:18.436Z,15.49
